sensor_id;sensor_type;location;lat;lon;timestamp;pressure;altitude;pressure_sealevel;temperature;humidity
67697;BME280;54486;51.442;6.778;2023-09-18T00:00:44;100391.41;;;19.16;100.00
67697;BME280;54486;51.442;6.778;2023-09-18T00:03:24;100390.69;;;19.13;100.00
67697;BME280;54486;51.442;6.778;2023-09-18T00:05:52;100389.81;;;19.12;100.00
67697;BME280;54486;51.442;6.778;2023-09-18T00:08:19;100398.72;;;19.11;100.00
67697;BME280;54486;51.442;6.778;2023-09-18T00:10:52;100393.53;;;19.08;100.00
67697;BME280;54486;51.442;6.778;2023-09-18T00:13:20;100395.25;;;19.09;100.00
67697;BME280;54486;51.442;6.778;2023-09-18T00:15:48;100387.31;;;19.09;100.00
67697;BME280;54486;51.442;6.778;2023-09-18T00:18:16;100389.13;;;19.09;100.00
67697;BME280;54486;51.442;6.778;2023-09-18T00:20:43;100384.69;;;19.09;100.00
67697;BME280;54486;51.442;6.778;2023-09-18T00:23:10;100375.97;;;19.07;100.00
67697;BME280;54486;51.442;6.778;2023-09-18T00:25:37;100368.97;;;19.06;100.00
67697;BME280;54486;51.442;6.778;2023-09-18T00:28:04;100371.63;;;19.06;100.00
67697;BME280;54486;51.442;6.778;2023-09-18T00:30:31;100361.94;;;19.05;100.00
67697;BME280;54486;51.442;6.778;2023-09-18T00:32:59;100361.13;;;19.05;100.00
67697;BME280;54486;51.442;6.778;2023-09-18T00:35:26;100344.53;;;19.01;100.00
67697;BME280;54486;51.442;6.778;2023-09-18T00:37:53;100339.31;;;18.99;100.00
67697;BME280;54486;51.442;6.778;2023-09-18T00:40:21;100339.25;;;19.01;100.00
67697;BME280;54486;51.442;6.778;2023-09-18T00:42:47;100325.22;;;18.99;100.00
67697;BME280;54486;51.442;6.778;2023-09-18T00:45:14;100326.97;;;19.00;100.00
67697;BME280;54486;51.442;6.778;2023-09-18T00:47:42;100326.97;;;19.00;100.00
67697;BME280;54486;51.442;6.778;2023-09-18T00:50:11;100321.66;;;19.00;100.00
67697;BME280;54486;51.442;6.778;2023-09-18T00:52:41;100325.22;;;18.99;100.00
67697;BME280;54486;51.442;6.778;2023-09-18T00:55:09;100325.31;;;18.97;100.00
67697;BME280;54486;51.442;6.778;2023-09-18T00:57:37;100312.97;;;18.98;100.00
67697;BME280;54486;51.442;6.778;2023-09-18T01:00:05;100306.88;;;18.96;100.00
67697;BME280;54486;51.442;6.778;2023-09-18T01:02:33;100305.09;;;18.96;100.00
67697;BME280;54486;51.442;6.778;2023-09-18T01:05:01;100303.31;;;18.97;100.00
67697;BME280;54486;51.442;6.778;2023-09-18T01:07:28;100297.41;;;18.92;100.00
67697;BME280;54486;51.442;6.778;2023-09-18T01:09:56;100299.25;;;18.90;100.00
67697;BME280;54486;51.442;6.778;2023-09-18T01:12:30;100288.66;;;18.90;100.00
67697;BME280;54486;51.442;6.778;2023-09-18T01:17:40;100295.28;;;18.81;100.00
67697;BME280;54486;51.442;6.778;2023-09-18T01:20:11;100294.50;;;18.79;100.00
67697;BME280;54486;51.442;6.778;2023-09-18T01:22:40;100291.00;;;18.79;100.00
67697;BME280;54486;51.442;6.778;2023-09-18T01:25:07;100287.41;;;18.80;100.00
67697;BME280;54486;51.442;6.778;2023-09-18T01:27:34;100284.75;;;18.80;100.00
67697;BME280;54486;51.442;6.778;2023-09-18T01:30:02;100280.50;;;18.77;100.00
67697;BME280;54486;51.442;6.778;2023-09-18T01:32:31;100281.34;;;18.78;100.00
67697;BME280;54486;51.442;6.778;2023-09-18T01:35:00;100276.13;;;18.76;100.00
67697;BME280;54486;51.442;6.778;2023-09-18T01:37:31;100275.28;;;18.76;100.00
67697;BME280;54486;51.442;6.778;2023-09-18T01:39:58;100275.44;;;18.73;100.00
67697;BME280;54486;51.442;6.778;2023-09-18T01:42:27;100270.16;;;18.73;100.00
67697;BME280;54486;51.442;6.778;2023-09-18T01:44:55;100266.72;;;18.71;100.00
67697;BME280;54486;51.442;6.778;2023-09-18T01:47:22;100266.72;;;18.71;100.00
67697;BME280;54486;51.442;6.778;2023-09-18T01:49:55;100268.59;;;18.69;100.00
67697;BME280;54486;51.442;6.778;2023-09-18T01:52:23;100257.94;;;18.70;100.00
67697;BME280;54486;51.442;6.778;2023-09-18T01:54:50;100258.03;;;18.69;100.00
67697;BME280;54486;51.442;6.778;2023-09-18T01:57:17;100251.00;;;18.68;100.00
67697;BME280;54486;51.442;6.778;2023-09-18T01:59:44;100252.72;;;18.69;100.00
67697;BME280;54486;51.442;6.778;2023-09-18T02:02:13;100253.59;;;18.69;100.00
67697;BME280;54486;51.442;6.778;2023-09-18T02:04:53;100254.44;;;18.70;100.00
67697;BME280;54486;51.442;6.778;2023-09-18T02:07:33;100252.56;;;18.72;100.00
67697;BME280;54486;51.442;6.778;2023-09-18T02:10:01;100243.72;;;18.73;100.00
67697;BME280;54486;51.442;6.778;2023-09-18T02:12:28;100244.56;;;18.73;100.00
67697;BME280;54486;51.442;6.778;2023-09-18T02:14:55;100240.13;;;18.74;100.00
67697;BME280;54486;51.442;6.778;2023-09-18T02:17:25;100238.28;;;18.76;100.00
67697;BME280;54486;51.442;6.778;2023-09-18T02:19:52;100233.00;;;18.76;100.00
67697;BME280;54486;51.442;6.778;2023-09-18T02:22:19;100217.97;;;18.76;100.00
67697;BME280;54486;51.442;6.778;2023-09-18T02:24:46;100221.41;;;18.78;100.00
67697;BME280;54486;51.442;6.778;2023-09-18T02:27:13;100224.13;;;18.77;100.00
67697;BME280;54486;51.442;6.778;2023-09-18T02:29:44;100205.47;;;18.80;100.00
67697;BME280;54486;51.442;6.778;2023-09-18T02:32:11;100200.97;;;18.82;100.00
67697;BME280;54486;51.442;6.778;2023-09-18T02:34:38;100194.72;;;18.83;100.00
67697;BME280;54486;51.442;6.778;2023-09-18T02:37:05;100188.53;;;18.84;100.00
67697;BME280;54486;51.442;6.778;2023-09-18T02:39:33;100175.47;;;18.81;100.00
67697;BME280;54486;51.442;6.778;2023-09-18T02:41:59;100172.81;;;18.81;100.00
67697;BME280;54486;51.442;6.778;2023-09-18T02:44:26;100171.09;;;18.80;100.00
67697;BME280;54486;51.442;6.778;2023-09-18T02:46:54;100160.53;;;18.80;100.00
67697;BME280;54486;51.442;6.778;2023-09-18T02:49:21;100157.88;;;18.80;100.00
67697;BME280;54486;51.442;6.778;2023-09-18T02:51:48;100145.53;;;18.80;100.00
67697;BME280;54486;51.442;6.778;2023-09-18T02:54:16;100144.66;;;18.80;100.00
67697;BME280;54486;51.442;6.778;2023-09-18T02:56:44;100152.59;;;18.80;100.00
67697;BME280;54486;51.442;6.778;2023-09-18T02:59:11;100168.53;;;18.78;100.00
67697;BME280;54486;51.442;6.778;2023-09-18T03:01:38;100157.88;;;18.80;100.00
67697;BME280;54486;51.442;6.778;2023-09-18T03:04:06;100146.22;;;18.84;100.00
67697;BME280;54486;51.442;6.778;2023-09-18T03:06:38;100130.22;;;18.87;100.00
67697;BME280;54486;51.442;6.778;2023-09-18T03:09:06;100130.75;;;18.93;100.00
67697;BME280;54486;51.442;6.778;2023-09-18T03:11:33;100130.34;;;19.01;100.00
67697;BME280;54486;51.442;6.778;2023-09-18T03:14:00;100130.78;;;19.09;100.00
67697;BME280;54486;51.442;6.778;2023-09-18T03:16:27;100125.00;;;19.18;100.00
67697;BME280;54486;51.442;6.778;2023-09-18T03:18:54;100124.53;;;19.27;100.00
67697;BME280;54486;51.442;6.778;2023-09-18T03:21:23;100109.00;;;19.37;100.00
67697;BME280;54486;51.442;6.778;2023-09-18T03:23:51;100102.59;;;19.42;100.00
67697;BME280;54486;51.442;6.778;2023-09-18T03:26:18;100108.06;;;19.55;100.00
67697;BME280;54486;51.442;6.778;2023-09-18T03:28:45;100096.28;;;19.61;100.00
67697;BME280;54486;51.442;6.778;2023-09-18T03:31:12;100080.91;;;19.67;100.00
67697;BME280;54486;51.442;6.778;2023-09-18T03:33:40;100086.72;;;19.74;100.00
67697;BME280;54486;51.442;6.778;2023-09-18T03:36:07;100089.97;;;19.79;100.00
67697;BME280;54486;51.442;6.778;2023-09-18T03:38:34;100086.38;;;19.80;100.00
67697;BME280;54486;51.442;6.778;2023-09-18T03:41:02;100081.66;;;19.85;100.00
67697;BME280;54486;51.442;6.778;2023-09-18T03:43:29;100079.53;;;19.91;100.00
67697;BME280;54486;51.442;6.778;2023-09-18T03:46:06;100079.84;;;20.01;100.00
67697;BME280;54486;51.442;6.778;2023-09-18T03:48:34;100070.81;;;20.05;100.00
67697;BME280;54486;51.442;6.778;2023-09-18T03:51:05;100075.06;;;20.07;100.00
67697;BME280;54486;51.442;6.778;2023-09-18T03:53:32;100063.47;;;20.10;100.00
67697;BME280;54486;51.442;6.778;2023-09-18T03:56:01;100063.28;;;20.13;100.00
67697;BME280;54486;51.442;6.778;2023-09-18T03:58:28;100061.56;;;20.12;100.00
67697;BME280;54486;51.442;6.778;2023-09-18T04:00:55;100049.94;;;20.15;100.00
67697;BME280;54486;51.442;6.778;2023-09-18T04:03:23;100031.50;;;20.13;100.00
67697;BME280;54486;51.442;6.778;2023-09-18T04:05:50;100029.78;;;20.12;100.00
67697;BME280;54486;51.442;6.778;2023-09-18T04:08:16;100038.66;;;20.11;100.00
67697;BME280;54486;51.442;6.778;2023-09-18T04:10:43;100045.69;;;20.12;100.00
67697;BME280;54486;51.442;6.778;2023-09-18T04:13:12;100057.88;;;20.15;100.00
67697;BME280;54486;51.442;6.778;2023-09-18T04:15:38;100052.50;;;20.16;100.00
67697;BME280;54486;51.442;6.778;2023-09-18T04:18:06;100065.56;;;20.19;100.00
67697;BME280;54486;51.442;6.778;2023-09-18T04:20:33;100057.63;;;20.19;100.00
67697;BME280;54486;51.442;6.778;2023-09-18T04:23:23;100062.56;;;20.25;100.00
67697;BME280;54486;51.442;6.778;2023-09-18T04:25:51;100065.81;;;20.30;100.00
67697;BME280;54486;51.442;6.778;2023-09-18T04:28:20;100070.69;;;20.38;100.00
67697;BME280;54486;51.442;6.778;2023-09-18T04:30:48;100073.41;;;20.36;100.00
67697;BME280;54486;51.442;6.778;2023-09-18T04:33:16;100079.66;;;20.35;100.00
67697;BME280;54486;51.442;6.778;2023-09-18T04:35:44;100078.81;;;20.35;100.00
67697;BME280;54486;51.442;6.778;2023-09-18T04:38:11;100086.84;;;20.33;100.00
67697;BME280;54486;51.442;6.778;2023-09-18T04:40:40;100093.16;;;20.31;100.00
67697;BME280;54486;51.442;6.778;2023-09-18T04:43:08;100097.63;;;20.30;100.00
67697;BME280;54486;51.442;6.778;2023-09-18T04:45:35;100087.19;;;20.27;100.00
67697;BME280;54486;51.442;6.778;2023-09-18T04:48:02;100092.63;;;20.24;100.00
67697;BME280;54486;51.442;6.778;2023-09-18T04:50:30;100089.25;;;20.22;100.00
67697;BME280;54486;51.442;6.778;2023-09-18T04:52:57;100085.81;;;20.20;100.00
67697;BME280;54486;51.442;6.778;2023-09-18T04:55:24;100091.09;;;20.20;100.00
67697;BME280;54486;51.442;6.778;2023-09-18T04:57:52;100098.13;;;20.21;100.00
67697;BME280;54486;51.442;6.778;2023-09-18T05:00:19;100087.53;;;20.21;100.00
67697;BME280;54486;51.442;6.778;2023-09-18T05:02:50;100081.38;;;20.21;100.00
67697;BME280;54486;51.442;6.778;2023-09-18T05:05:17;100090.16;;;20.21;100.00
67697;BME280;54486;51.442;6.778;2023-09-18T05:07:45;100093.69;;;20.22;100.00
67697;BME280;54486;51.442;6.778;2023-09-18T05:10:12;100097.25;;;20.21;100.00
67697;BME280;54486;51.442;6.778;2023-09-18T05:12:40;100097.25;;;20.21;100.00
67697;BME280;54486;51.442;6.778;2023-09-18T05:15:08;100084.13;;;20.19;100.00
67697;BME280;54486;51.442;6.778;2023-09-18T05:20:11;100080.50;;;20.20;100.00
67697;BME280;54486;51.442;6.778;2023-09-18T05:22:40;100073.53;;;20.19;100.00
67697;BME280;54486;51.442;6.778;2023-09-18T05:25:09;100071.97;;;20.15;100.00
67697;BME280;54486;51.442;6.778;2023-09-18T05:27:44;100081.03;;;20.11;100.00
67697;BME280;54486;51.442;6.778;2023-09-18T05:30:18;100093.53;;;20.09;100.00
67697;BME280;54486;51.442;6.778;2023-09-18T05:32:47;100103.19;;;20.10;100.00
67697;BME280;54486;51.442;6.778;2023-09-18T05:35:15;100114.53;;;20.12;100.00
67697;BME280;54486;51.442;6.778;2023-09-18T05:37:44;100111.13;;;20.10;100.00
67697;BME280;54486;51.442;6.778;2023-09-18T05:40:12;100102.16;;;20.13;100.00
67697;BME280;54486;51.442;6.778;2023-09-18T05:42:42;100093.34;;;20.12;100.00
67697;BME280;54486;51.442;6.778;2023-09-18T05:45:14;100079.19;;;20.13;100.00
67697;BME280;54486;51.442;6.778;2023-09-18T05:47:41;100091.47;;;20.14;100.00
67697;BME280;54486;51.442;6.778;2023-09-18T05:50:11;100088.91;;;20.13;100.00
67697;BME280;54486;51.442;6.778;2023-09-18T05:52:47;100103.09;;;20.12;100.00
67697;BME280;54486;51.442;6.778;2023-09-18T05:55:15;100100.38;;;20.13;100.00
67697;BME280;54486;51.442;6.778;2023-09-18T05:57:43;100116.25;;;20.13;100.00
67697;BME280;54486;51.442;6.778;2023-09-18T06:00:10;100133.84;;;20.14;100.00
67697;BME280;54486;51.442;6.778;2023-09-18T06:02:40;100138.28;;;20.14;100.00
67697;BME280;54486;51.442;6.778;2023-09-18T06:05:08;100128.38;;;20.17;100.00
67697;BME280;54486;51.442;6.778;2023-09-18T06:07:40;100135.38;;;20.18;100.00
67697;BME280;54486;51.442;6.778;2023-09-18T06:10:07;100134.44;;;20.19;100.00
67697;BME280;54486;51.442;6.778;2023-09-18T06:12:37;100133.50;;;20.20;100.00
67697;BME280;54486;51.442;6.778;2023-09-18T06:15:06;100123.75;;;20.21;100.00
67697;BME280;54486;51.442;6.778;2023-09-18T06:17:41;100124.59;;;20.21;100.00
67697;BME280;54486;51.442;6.778;2023-09-18T06:20:10;100120.72;;;20.28;100.00
67697;BME280;54486;51.442;6.778;2023-09-18T06:22:39;100124.09;;;20.30;100.00
67697;BME280;54486;51.442;6.778;2023-09-18T06:25:07;100123.06;;;20.33;100.00
67697;BME280;54486;51.442;6.778;2023-09-18T06:27:35;100130.09;;;20.34;100.00
67697;BME280;54486;51.442;6.778;2023-09-18T06:30:04;100127.38;;;20.35;100.00
67697;BME280;54486;51.442;6.778;2023-09-18T06:32:32;100128.69;;;20.42;100.00
67697;BME280;54486;51.442;6.778;2023-09-18T06:35:00;100130.59;;;20.40;100.00
67697;BME280;54486;51.442;6.778;2023-09-18T06:37:27;100133.06;;;20.43;100.00
67697;BME280;54486;51.442;6.778;2023-09-18T06:39:55;100129.47;;;20.44;100.00
67697;BME280;54486;51.442;6.778;2023-09-18T06:42:23;100133.81;;;20.45;100.00
67697;BME280;54486;51.442;6.778;2023-09-18T06:44:51;100135.53;;;20.46;100.00
67697;BME280;54486;51.442;6.778;2023-09-18T06:47:19;100161.84;;;20.49;100.00
67697;BME280;54486;51.442;6.778;2023-09-18T06:49:47;100156.38;;;20.52;100.00
67697;BME280;54486;51.442;6.778;2023-09-18T06:52:14;100157.91;;;20.56;100.00
67697;BME280;54486;51.442;6.778;2023-09-18T06:54:41;100148.84;;;20.61;100.00
67697;BME280;54486;51.442;6.778;2023-09-18T06:57:08;100143.38;;;20.64;100.00
67697;BME280;54486;51.442;6.778;2023-09-18T06:59:35;100151.88;;;20.69;100.00
67697;BME280;54486;51.442;6.778;2023-09-18T07:02:04;100163.66;;;20.79;100.00
67697;BME280;54486;51.442;6.778;2023-09-18T07:04:31;100163.66;;;20.79;100.00
67697;BME280;54486;51.442;6.778;2023-09-18T07:06:58;100162.56;;;20.83;100.00
67697;BME280;54486;51.442;6.778;2023-09-18T07:09:25;100174.78;;;20.85;100.00
67697;BME280;54486;51.442;6.778;2023-09-18T07:11:53;100177.16;;;20.90;100.00
67697;BME280;54486;51.442;6.778;2023-09-18T07:14:20;100182.28;;;20.93;100.00
67697;BME280;54486;51.442;6.778;2023-09-18T07:16:47;100189.09;;;20.97;100.00
67697;BME280;54486;51.442;6.778;2023-09-18T07:19:15;100180.19;;;20.98;100.00
67697;BME280;54486;51.442;6.778;2023-09-18T07:21:44;100167.50;;;21.03;100.00
67697;BME280;54486;51.442;6.778;2023-09-18T07:24:11;100180.69;;;21.04;100.00
67697;BME280;54486;51.442;6.778;2023-09-18T07:26:46;100186.50;;;21.11;100.00
67697;BME280;54486;51.442;6.778;2023-09-18T07:29:16;100193.53;;;21.12;100.00
67697;BME280;54486;51.442;6.778;2023-09-18T07:31:44;100193.34;;;21.15;100.00
67697;BME280;54486;51.442;6.778;2023-09-18T07:34:11;100203.19;;;21.13;100.00
67697;BME280;54486;51.442;6.778;2023-09-18T07:36:41;100201.56;;;21.10;100.00
67697;BME280;54486;51.442;6.778;2023-09-18T07:39:07;100204.34;;;21.09;100.00
67697;BME280;54486;51.442;6.778;2023-09-18T07:41:35;100197.13;;;21.11;100.00
67697;BME280;54486;51.442;6.778;2023-09-18T07:44:02;100197.97;;;21.12;100.00
67697;BME280;54486;51.442;6.778;2023-09-18T07:46:32;100200.53;;;21.13;100.00
67697;BME280;54486;51.442;6.778;2023-09-18T07:49:00;100190.88;;;21.12;100.00
67697;BME280;54486;51.442;6.778;2023-09-18T07:51:28;100196.94;;;21.14;100.00
67697;BME280;54486;51.442;6.778;2023-09-18T07:53:55;100206.25;;;21.21;99.21
67697;BME280;54486;51.442;6.778;2023-09-18T07:56:23;100201.88;;;21.20;98.66
67697;BME280;54486;51.442;6.778;2023-09-18T07:58:51;100210.50;;;21.24;99.10
67697;BME280;54486;51.442;6.778;2023-09-18T08:01:19;100213.66;;;21.30;99.42
67697;BME280;54486;51.442;6.778;2023-09-18T08:03:50;100218.97;;;21.30;96.52
67697;BME280;54486;51.442;6.778;2023-09-18T08:06:18;100238.88;;;21.37;97.81
67697;BME280;54486;51.442;6.778;2023-09-18T08:08:46;100228.06;;;21.40;97.08
67697;BME280;54486;51.442;6.778;2023-09-18T08:11:16;100217.53;;;21.39;95.16
67697;BME280;54486;51.442;6.778;2023-09-18T08:13:44;100202.28;;;21.42;95.80
67697;BME280;54486;51.442;6.778;2023-09-18T08:16:11;100218.03;;;21.45;96.05
67697;BME280;54486;51.442;6.778;2023-09-18T08:18:43;100219.75;;;21.46;95.40
67697;BME280;54486;51.442;6.778;2023-09-18T08:21:11;100208.00;;;21.50;96.15
67697;BME280;54486;51.442;6.778;2023-09-18T08:23:41;100220.88;;;21.56;93.62
67697;BME280;54486;51.442;6.778;2023-09-18T08:26:09;100239.19;;;21.61;94.64
67697;BME280;54486;51.442;6.778;2023-09-18T08:28:37;100246.94;;;21.64;93.81
67697;BME280;54486;51.442;6.778;2023-09-18T08:31:10;100238.13;;;21.63;93.44
67697;BME280;54486;51.442;6.778;2023-09-18T08:33:38;100236.31;;;21.64;93.69
67697;BME280;54486;51.442;6.778;2023-09-18T08:36:06;100247.25;;;21.59;93.40
67697;BME280;54486;51.442;6.778;2023-09-18T08:38:33;100246.09;;;21.63;94.79
67697;BME280;54486;51.442;6.778;2023-09-18T08:41:01;100234.72;;;21.61;93.55
67697;BME280;54486;51.442;6.778;2023-09-18T08:43:31;100233.00;;;21.60;93.88
67697;BME280;54486;51.442;6.778;2023-09-18T08:46:02;100239.84;;;21.64;94.60
67697;BME280;54486;51.442;6.778;2023-09-18T08:48:32;100248.03;;;21.76;93.40
67697;BME280;54486;51.442;6.778;2023-09-18T08:51:05;100232.28;;;21.73;92.44
67697;BME280;54486;51.442;6.778;2023-09-18T08:53:34;100244.59;;;21.74;91.91
67697;BME280;54486;51.442;6.778;2023-09-18T08:56:04;100243.72;;;21.73;92.74
67697;BME280;54486;51.442;6.778;2023-09-18T08:58:33;100237.59;;;21.73;92.56
67697;BME280;54486;51.442;6.778;2023-09-18T09:01:03;100240.06;;;21.76;90.61
67697;BME280;54486;51.442;6.778;2023-09-18T09:03:33;100248.84;;;21.76;91.32
67697;BME280;54486;51.442;6.778;2023-09-18T09:06:02;100259.13;;;21.82;92.88
67697;BME280;54486;51.442;6.778;2023-09-18T09:08:31;100258.06;;;21.85;92.18
67697;BME280;54486;51.442;6.778;2023-09-18T09:10:59;100259.63;;;21.89;91.44
67697;BME280;54486;51.442;6.778;2023-09-18T09:13:29;100250.69;;;21.90;90.55
67697;BME280;54486;51.442;6.778;2023-09-18T09:16:13;100249.16;;;22.00;89.85
67697;BME280;54486;51.442;6.778;2023-09-18T09:18:49;100237.00;;;22.10;89.79
67697;BME280;54486;51.442;6.778;2023-09-18T09:21:19;100227.72;;;22.17;89.91
67697;BME280;54486;51.442;6.778;2023-09-18T09:23:49;100230.13;;;22.34;87.95
67697;BME280;54486;51.442;6.778;2023-09-18T09:26:24;100236.03;;;22.25;86.03
67697;BME280;54486;51.442;6.778;2023-09-18T09:28:53;100233.94;;;22.30;86.72
67697;BME280;54486;51.442;6.778;2023-09-18T09:31:31;100237.56;;;22.29;86.63
67697;BME280;54486;51.442;6.778;2023-09-18T09:33:59;100226.25;;;22.26;85.99
67697;BME280;54486;51.442;6.778;2023-09-18T09:36:33;100223.50;;;22.27;86.93
67697;BME280;54486;51.442;6.778;2023-09-18T09:39:02;100244.78;;;22.27;86.76
67697;BME280;54486;51.442;6.778;2023-09-18T09:41:32;100242.66;;;22.32;85.49
67697;BME280;54486;51.442;6.778;2023-09-18T09:44:05;100245.88;;;22.37;85.39
67697;BME280;54486;51.442;6.778;2023-09-18T09:46:34;100252.91;;;22.38;85.87
67697;BME280;54486;51.442;6.778;2023-09-18T09:49:04;100266.94;;;22.40;85.03
67697;BME280;54486;51.442;6.778;2023-09-18T09:51:36;100262.28;;;22.44;84.72
67697;BME280;54486;51.442;6.778;2023-09-18T09:54:05;100260.88;;;22.38;83.40
67697;BME280;54486;51.442;6.778;2023-09-18T09:56:47;100260.72;;;22.27;84.47
67697;BME280;54486;51.442;6.778;2023-09-18T09:59:20;100257.97;;;22.29;85.41
67697;BME280;54486;51.442;6.778;2023-09-18T10:01:49;100254.81;;;22.36;83.74
67697;BME280;54486;51.442;6.778;2023-09-18T10:04:20;100255.84;;;22.34;83.82
67697;BME280;54486;51.442;6.778;2023-09-18T10:06:58;100251.19;;;22.37;84.45
67697;BME280;54486;51.442;6.778;2023-09-18T10:09:34;100252.91;;;22.38;85.56
67697;BME280;54486;51.442;6.778;2023-09-18T10:12:10;100254.81;;;22.36;84.41
67697;BME280;54486;51.442;6.778;2023-09-18T10:14:40;100262.03;;;22.34;84.26
67697;BME280;54486;51.442;6.778;2023-09-18T10:17:27;100254.22;;;22.45;84.83
67697;BME280;54486;51.442;6.778;2023-09-18T10:20:08;100251.25;;;22.50;84.49
67697;BME280;54486;51.442;6.778;2023-09-18T10:22:43;100254.47;;;22.55;83.59
67697;BME280;54486;51.442;6.778;2023-09-18T10:25:21;100241.94;;;22.57;82.52
67697;BME280;54486;51.442;6.778;2023-09-18T10:27:52;100240.53;;;22.51;83.37
67697;BME280;54486;51.442;6.778;2023-09-18T10:30:22;100239.78;;;22.49;81.86
67697;BME280;54486;51.442;6.778;2023-09-18T10:32:53;100236.34;;;22.47;82.75
67697;BME280;54486;51.442;6.778;2023-09-18T10:35:23;100233.19;;;22.55;84.68
67697;BME280;54486;51.442;6.778;2023-09-18T10:37:54;100230.63;;;22.53;84.39
67697;BME280;54486;51.442;6.778;2023-09-18T10:40:22;100234.25;;;22.52;83.21
67697;BME280;54486;51.442;6.778;2023-09-18T10:42:54;100237.56;;;22.56;84.67
67697;BME280;54486;51.442;6.778;2023-09-18T10:45:22;100244.31;;;22.61;81.64
67697;BME280;54486;51.442;6.778;2023-09-18T10:47:50;100240.84;;;22.74;81.04
67697;BME280;54486;51.442;6.778;2023-09-18T10:50:26;100238.88;;;22.90;80.80
67697;BME280;54486;51.442;6.778;2023-09-18T10:52:57;100258.91;;;22.95;79.74
67697;BME280;54486;51.442;6.778;2023-09-18T10:55:29;100254.44;;;22.96;79.17
67697;BME280;54486;51.442;6.778;2023-09-18T10:57:59;100259.56;;;22.99;79.11
67697;BME280;54486;51.442;6.778;2023-09-18T11:00:29;100246.03;;;23.02;79.74
67697;BME280;54486;51.442;6.778;2023-09-18T11:03:14;100246.38;;;22.97;79.59
67697;BME280;54486;51.442;6.778;2023-09-18T11:05:46;100233.78;;;22.87;78.52
67697;BME280;54486;51.442;6.778;2023-09-18T11:08:33;100233.41;;;22.79;80.00
67697;BME280;54486;51.442;6.778;2023-09-18T11:13:40;100237.38;;;22.86;79.12
67697;BME280;54486;51.442;6.778;2023-09-18T11:16:18;100249.53;;;22.90;77.63
67697;BME280;54486;51.442;6.778;2023-09-18T11:21:28;100248.97;;;23.24;78.30
67697;BME280;54486;51.442;6.778;2023-09-18T11:24:03;100252.03;;;23.45;76.18
67697;BME280;54486;51.442;6.778;2023-09-18T11:26:35;100244.56;;;23.62;73.84
67697;BME280;54486;51.442;6.778;2023-09-18T11:29:06;100243.25;;;23.81;72.40
67697;BME280;54486;51.442;6.778;2023-09-18T11:31:58;100248.03;;;24.01;72.57
67697;BME280;54486;51.442;6.778;2023-09-18T11:34:32;100252.69;;;24.10;72.15
67697;BME280;54486;51.442;6.778;2023-09-18T11:37:02;100246.63;;;24.08;72.79
67697;BME280;54486;51.442;6.778;2023-09-18T11:39:46;100250.81;;;23.99;71.57
67697;BME280;54486;51.442;6.778;2023-09-18T11:42:22;100240.25;;;23.98;72.32
67697;BME280;54486;51.442;6.778;2023-09-18T11:44:49;100246.03;;;23.92;71.06
67697;BME280;54486;51.442;6.778;2023-09-18T11:47:19;100244.84;;;23.96;71.49
67697;BME280;54486;51.442;6.778;2023-09-18T11:49:49;100248.69;;;23.92;71.54
67697;BME280;54486;51.442;6.778;2023-09-18T11:52:18;100236.88;;;23.96;71.72
67697;BME280;54486;51.442;6.778;2023-09-18T11:54:47;100234.94;;;23.98;70.64
67697;BME280;54486;51.442;6.778;2023-09-18T11:57:14;100231.31;;;23.99;72.42
67697;BME280;54486;51.442;6.778;2023-09-18T11:59:42;100240.56;;;24.06;72.70
67697;BME280;54486;51.442;6.778;2023-09-18T12:02:13;100239.59;;;24.07;71.75
67697;BME280;54486;51.442;6.778;2023-09-18T12:04:48;100228.06;;;24.19;71.75
67697;BME280;54486;51.442;6.778;2023-09-18T12:07:15;100224.78;;;24.28;71.45
67697;BME280;54486;51.442;6.778;2023-09-18T12:09:43;100229.13;;;24.29;71.00
67697;BME280;54486;51.442;6.778;2023-09-18T12:12:11;100220.63;;;24.24;71.06
67697;BME280;54486;51.442;6.778;2023-09-18T12:14:41;100219.22;;;24.31;69.75
67697;BME280;54486;51.442;6.778;2023-09-18T12:17:14;100218.31;;;24.43;70.43
67697;BME280;54486;51.442;6.778;2023-09-18T12:19:51;100217.84;;;24.49;68.60
67697;BME280;54486;51.442;6.778;2023-09-18T12:22:29;100220.53;;;24.49;65.57
67697;BME280;54486;51.442;6.778;2023-09-18T12:25:14;100210.13;;;24.34;65.76
67697;BME280;54486;51.442;6.778;2023-09-18T12:27:44;100225.09;;;24.23;65.78
67697;BME280;54486;51.442;6.778;2023-09-18T12:30:13;100218.03;;;24.22;64.95
67697;BME280;54486;51.442;6.778;2023-09-18T12:32:52;100225.50;;;24.30;64.60
67697;BME280;54486;51.442;6.778;2023-09-18T12:35:20;100219.91;;;24.46;67.08
67697;BME280;54486;51.442;6.778;2023-09-18T12:37:49;100213.16;;;24.53;63.12
67697;BME280;54486;51.442;6.778;2023-09-18T12:40:23;100214.72;;;24.55;65.01
67697;BME280;54486;51.442;6.778;2023-09-18T12:42:53;100215.13;;;24.62;63.94
67697;BME280;54486;51.442;6.778;2023-09-18T12:45:22;100213.81;;;24.67;64.08
67697;BME280;54486;51.442;6.778;2023-09-18T12:47:51;100199.06;;;24.74;61.64
67697;BME280;54486;51.442;6.778;2023-09-18T12:50:19;100212.88;;;24.80;62.72
67697;BME280;54486;51.442;6.778;2023-09-18T12:52:46;100196.06;;;24.79;61.60
67697;BME280;54486;51.442;6.778;2023-09-18T12:55:26;100207.78;;;24.76;61.59
67697;BME280;54486;51.442;6.778;2023-09-18T12:57:54;100206.59;;;24.81;62.95
67697;BME280;54486;51.442;6.778;2023-09-18T13:00:23;100195.50;;;24.87;60.83
67697;BME280;54486;51.442;6.778;2023-09-18T13:02:50;100212.69;;;24.83;61.52
67697;BME280;54486;51.442;6.778;2023-09-18T13:05:24;100198.38;;;24.84;61.99